Time;durP1;ratioP1;P1;durP2;ratioP2;P2;SDS_P1;SDS_P2;PMS_P1;PMS_P2;Temp;Humidity;BMP_temperature;BMP_pressure;BME280_temperature;BME280_humidity;BME280_pressure;Samples;Min_cycle;Max_cycle;Signal;HPM_P1;HPM_P2
2023/07/11 00:00:17;;;;;;;5.55;1.67;;;;;;;14.97;100.00;99766.19;1734761;80;22493;-65
2023/07/11 00:02:47;;;;;;;4.53;2.22;;;;;;;14.91;100.00;99765.28;1734899;80;20967;-62
2023/07/11 00:05:16;;;;;;;4.45;1.77;;;;;;;14.90;100.00;99770.18;1735389;80;21826;-60
2023/07/11 00:07:44;;;;;;;2.40;1.50;;;;;;;14.86;100.00;99767.36;1734103;80;20981;-60
2023/07/11 00:10:17;;;;;;;4.85;1.65;;;;;;;14.82;100.00;99761.94;1734784;80;21525;-61
2023/07/11 00:12:43;;;;;;;1.60;1.50;;;;;;;14.80;100.00;99754.61;1741893;80;21061;-60
2023/07/11 00:15:12;;;;;;;3.50;1.77;;;;;;;14.77;100.00;99758.76;1732414;80;20978;-61
2023/07/11 00:17:39;;;;;;;1.80;1.60;;;;;;;14.71;100.00;99746.02;1739051;80;21021;-62
2023/07/11 00:20:13;;;;;;;1.50;1.40;;;;;;;14.67;100.00;99745.34;1732242;80;20946;-61
2023/07/11 00:22:36;;;;;;;1.72;1.40;;;;;;;14.64;100.00;99752.11;1735683;80;20979;-65
2023/07/11 00:25:04;;;;;;;2.47;1.45;;;;;;;14.62;100.00;99745.27;1738187;80;21730;-61
2023/07/11 00:27:31;;;;;;;3.45;1.50;;;;;;;14.58;100.00;99742.47;1732009;80;21608;-62
2023/07/11 00:29:58;;;;;;;3.77;1.50;;;;;;;14.41;100.00;99724.64;1729514;81;20967;-61
2023/07/11 00:32:25;;;;;;;1.87;1.55;;;;;;;14.31;100.00;99720.89;1730185;81;20950;-61
2023/07/11 00:34:53;;;;;;;4.47;1.60;;;;;;;14.16;100.00;99716.62;1732824;81;20958;-64
2023/07/11 00:37:20;;;;;;;2.58;1.60;;;;;;;14.09;100.00;99709.13;1727327;81;21128;-61
2023/07/11 00:39:46;;;;;;;2.08;1.57;;;;;;;14.07;100.00;99700.49;1732293;81;20971;-63
2023/07/11 00:42:17;;;;;;;1.98;1.70;;;;;;;14.05;100.00;99704.98;1726661;81;21014;-63
2023/07/11 00:44:50;;;;;;;4.97;2.37;;;;;;;14.02;100.00;99702.55;1728885;81;21037;-63
2023/07/11 00:47:17;;;;;;;3.72;1.87;;;;;;;14.01;100.00;99698.25;1705302;81;21034;-63
2023/07/11 00:49:44;;;;;;;1.75;1.60;;;;;;;14.04;100.00;99698.06;1668493;84;21009;-60
2023/07/11 00:52:15;;;;;;;3.65;1.60;;;;;;;14.06;100.00;99690.94;1690075;81;21656;-60
2023/07/11 00:54:45;;;;;;;2.50;1.95;;;;;;;14.10;100.00;99693.73;1729607;81;21057;-61
2023/07/11 00:57:12;;;;;;;1.90;1.70;;;;;;;14.15;100.00;99693.94;1724336;81;20982;-61
2023/07/11 00:59:38;;;;;;;3.67;1.80;;;;;;;14.18;100.00;99693.74;1732778;81;20950;-62
2023/07/11 01:02:08;;;;;;;1.73;1.60;;;;;;;14.26;100.00;99698.88;1721147;81;21001;-60
2023/07/11 01:04:36;;;;;;;2.52;1.80;;;;;;;14.35;100.00;99694.83;1725251;81;21217;-63
2023/07/11 01:07:05;;;;;;;3.95;1.60;;;;;;;14.41;100.00;99685.23;1719127;80;20983;-63
2023/07/11 01:09:37;;;;;;;1.85;1.52;;;;;;;14.44;100.00;99685.05;1723377;81;20935;-61
2023/07/11 01:12:05;;;;;;;2.12;1.62;;;;;;;14.54;100.00;99690.60;1721372;81;21533;-62
2023/07/11 01:14:32;;;;;;;2.35;1.70;;;;;;;14.59;100.00;99698.16;1722711;81;20987;-61
2023/07/11 01:17:00;;;;;;;1.60;1.50;;;;;;;14.64;100.00;99706.60;1714490;81;22160;-63
2023/07/11 01:19:26;;;;;;;2.62;1.80;;;;;;;14.68;100.00;99718.63;1726931;80;21002;-64
2023/07/11 01:21:53;;;;;;;4.15;1.77;;;;;;;14.66;100.00;99717.87;1722062;81;20990;-65
2023/07/11 01:24:19;;;;;;;3.95;2.05;;;;;;;14.65;100.00;99722.77;1727225;81;21018;-63
2023/07/11 01:26:45;;;;;;;3.35;1.62;;;;;;;14.66;100.00;99723.95;1721106;81;20987;-62
2023/07/11 01:29:12;;;;;;;4.25;2.25;;;;;;;14.71;100.00;99715.79;1717771;81;21093;-61
2023/07/11 01:31:39;;;;;;;1.90;1.60;;;;;;;14.69;100.00;99717.67;1724041;81;21592;-61
2023/07/11 01:34:07;;;;;;;1.85;1.67;;;;;;;14.70;100.00;99716.72;1719768;81;21026;-62
2023/07/11 01:36:34;;;;;;;2.12;1.67;;;;;;;14.76;100.00;99718.97;1727374;81;21025;-61
2023/07/11 01:39:00;;;;;;;2.65;1.80;;;;;;;14.80;100.00;99714.35;1729721;81;20971;-61
2023/07/11 01:41:27;;;;;;;4.10;1.92;;;;;;;14.81;100.00;99711.61;1728081;81;20989;-61
2023/07/11 01:43:56;;;;;;;1.70;1.60;;;;;;;14.82;100.00;99708.05;1699307;83;20960;-60
2023/07/11 01:46:22;;;;;;;2.12;1.77;;;;;;;14.86;100.00;99704.27;1714295;81;21522;-60
2023/07/11 01:48:49;;;;;;;2.30;2.10;;;;;;;14.89;100.00;99706.70;1725791;81;20982;-61
2023/07/11 01:51:16;;;;;;;2.20;1.70;;;;;;;14.88;100.00;99707.66;1722470;81;21025;-61
2023/07/11 01:53:42;;;;;;;3.17;1.95;;;;;;;14.89;100.00;99706.70;1722941;81;21034;-64
2023/07/11 01:56:09;;;;;;;1.72;1.37;;;;;;;14.86;100.00;99714.78;1727276;81;21556;-61
2023/07/11 01:58:35;;;;;;;2.70;1.52;;;;;;;14.82;100.00;99710.69;1707799;81;21033;-62
2023/07/11 02:01:02;;;;;;;3.35;1.72;;;;;;;14.85;100.00;99715.73;1731100;81;21030;-63
2023/07/11 02:03:28;;;;;;;2.52;1.72;;;;;;;14.87;100.00;99714.31;1718854;81;21002;-61
2023/07/11 02:05:56;;;;;;;2.75;1.90;;;;;;;14.87;100.00;99703.34;1723362;81;21958;-60
2023/07/11 02:08:23;;;;;;;2.40;1.77;;;;;;;14.83;100.00;99701.01;1718573;82;21101;-65
2023/07/11 02:10:49;;;;;;;2.55;1.62;;;;;;;14.83;100.00;99699.69;1720299;81;20994;-61
2023/07/11 02:13:15;;;;;;;2.87;1.85;;;;;;;14.85;100.00;99705.22;1723897;81;21014;-61
2023/07/11 02:15:42;;;;;;;2.05;1.80;;;;;;;14.89;100.00;99711.95;1731462;81;21018;-61
2023/07/11 02:18:08;;;;;;;2.45;1.85;;;;;;;14.96;100.00;99710.63;1728238;81;21018;-61
2023/07/11 02:20:44;;;;;;;2.77;1.80;;;;;;;14.92;100.00;99715.70;1721596;80;20959;-63
2023/07/11 02:23:13;;;;;;;3.60;1.90;;;;;;;14.88;100.00;99714.22;1719364;81;20977;-64
2023/07/11 02:25:39;;;;;;;1.80;1.65;;;;;;;14.87;100.00;99709.92;1719033;81;22049;-62
2023/07/11 02:28:07;;;;;;;4.35;1.90;;;;;;;14.89;100.00;99714.58;1719610;81;21132;-61
2023/07/11 02:30:34;;;;;;;5.28;1.90;;;;;;;14.97;100.00;99713.61;1729703;81;20939;-62
2023/07/11 02:33:00;;;;;;;2.80;2.05;;;;;;;14.99;100.00;99718.30;1719717;81;21002;-62
2023/07/11 02:35:27;;;;;;;2.08;1.70;;;;;;;15.06;100.00;99711.33;1683888;83;20975;-62
2023/07/11 02:37:53;;;;;;;2.20;2.00;;;;;;;15.08;100.00;99700.24;1710841;82;21022;-61
2023/07/11 02:40:19;;;;;;;2.27;2.05;;;;;;;15.15;100.00;99712.02;1711048;82;21534;-61
2023/07/11 02:42:46;;;;;;;2.72;2.22;;;;;;;15.14;100.00;99714.29;1710109;82;20959;-62
2023/07/11 02:45:14;;;;;;;5.67;2.40;;;;;;;15.17;100.00;99715.40;1714337;82;21042;-61
2023/07/11 02:47:41;;;;;;;2.77;2.15;;;;;;;15.19;100.00;99721.41;1714503;82;21114;-63
2023/07/11 02:50:08;;;;;;;2.75;1.98;;;;;;;15.18;100.00;99715.79;1711239;82;21030;-63
2023/07/11 02:52:35;;;;;;;3.27;2.15;;;;;;;15.22;100.00;99714.15;1715139;81;21001;-63
2023/07/11 02:55:01;;;;;;;2.30;2.10;;;;;;;15.24;100.00;99714.06;1711899;82;21117;-61
2023/07/11 02:57:28;;;;;;;2.30;1.87;;;;;;;15.26;100.00;99714.78;1716523;82;21049;-61
2023/07/11 02:59:54;;;;;;;4.10;2.00;;;;;;;15.30;100.00;99720.22;1713945;82;21034;-61
2023/07/11 03:02:20;;;;;;;2.80;2.00;;;;;;;15.27;100.00;99724.38;1684713;83;21068;-61
2023/07/11 03:04:46;;;;;;;3.80;2.15;;;;;;;15.27;100.00;99731.43;1648651;84;21065;-62
2023/07/11 03:07:13;;;;;;;2.35;1.75;;;;;;;15.30;100.00;99717.59;1722040;80;20931;-61
2023/07/11 03:09:39;;;;;;;2.35;2.08;;;;;;;15.30;100.00;99716.75;1720078;81;21005;-61
2023/07/11 03:12:06;;;;;;;4.37;2.20;;;;;;;15.25;100.00;99717.05;1717542;81;21002;-61
2023/07/11 03:14:33;;;;;;;2.90;2.20;;;;;;;15.20;100.00;99712.56;1723041;81;20954;-62
2023/07/11 03:16:59;;;;;;;3.40;2.00;;;;;;;15.23;100.00;99714.98;1722780;81;20979;-61
2023/07/11 03:19:25;;;;;;;6.12;2.00;;;;;;;15.24;100.00;99723.27;1728477;81;21049;-61
2023/07/11 03:21:51;;;;;;;3.10;2.12;;;;;;;15.26;100.00;99716.09;1728016;81;20998;-63
2023/07/11 03:24:18;;;;;;;2.60;2.40;;;;;;;15.25;100.00;99721.00;1729616;81;21075;-63
2023/07/11 03:26:49;;;;;;;2.60;1.80;;;;;;;15.26;100.00;99712.15;1723532;81;20959;-61
2023/07/11 03:29:16;;;;;;;2.55;2.02;;;;;;;15.25;100.00;99715.73;1735431;80;20982;-61
2023/07/11 03:31:43;;;;;;;;;;;;;;;15.33;100.00;99710.81;1749984;80;21537;-61
2023/07/11 03:34:09;;;;;;;4.15;2.30;;;;;;;15.37;100.00;99705.70;1710716;83;20425;-61
2023/07/11 03:36:37;;;;;;;5.15;2.08;;;;;;;15.34;100.00;99707.22;1747394;80;21017;-61
2023/07/11 03:39:04;;;;;;;2.85;2.08;;;;;;;15.36;100.00;99707.12;1702570;82;21522;-62
2023/07/11 03:41:30;;;;;;;2.75;2.20;;;;;;;15.36;100.00;99706.66;1752266;80;21667;-61
2023/07/11 03:43:56;;;;;;;3.37;2.10;;;;;;;15.36;100.00;99702.70;1747697;80;20986;-63
2023/07/11 03:46:24;;;;;;;2.60;2.00;;;;;;;15.37;100.00;99708.33;1747547;80;21426;-62
2023/07/11 03:48:54;;;;;;;2.17;1.90;;;;;;;15.41;100.00;99700.61;1748977;80;20974;-62
2023/07/11 03:51:20;;;;;;;2.40;2.10;;;;;;;15.41;100.00;99703.25;1700054;83;21047;-62
2023/07/11 03:53:47;;;;;;;4.03;2.25;;;;;;;15.40;100.00;99703.33;1754696;80;20947;-61
2023/07/11 03:56:13;;;;;;;7.08;4.72;;;;;;;15.36;100.00;99685.61;1700495;83;20964;-61
2023/07/11 03:58:39;;;;;;;8.48;4.35;;;;;;;15.31;100.00;99691.64;1717498;80;21014;-61
2023/07/11 04:01:05;;;;;;;5.12;3.65;;;;;;;15.22;100.00;99687.01;1750068;80;21532;-61
2023/07/11 04:03:32;;;;;;;3.40;2.98;;;;;;;15.11;100.00;99689.03;1749551;80;21002;-62
2023/07/11 04:05:58;;;;;;;3.20;2.20;;;;;;;15.04;100.00;99696.11;1698441;83;21087;-61
2023/07/11 04:08:24;;;;;;;3.47;2.35;;;;;;;15.05;100.00;99691.24;1746692;80;20979;-62
2023/07/11 04:10:52;;;;;;;3.55;2.50;;;;;;;15.05;100.00;99697.81;1746053;80;21089;-61
2023/07/11 04:13:18;;;;;;;3.47;2.22;;;;;;;15.09;100.00;99701.91;1749095;80;21050;-63
2023/07/11 04:15:45;;;;;;;5.03;2.20;;;;;;;15.14;100.00;99699.83;1745693;80;20990;-63
2023/07/11 04:18:11;;;;;;;2.93;2.50;;;;;;;15.20;100.00;99698.09;1745190;80;20970;-63
2023/07/11 04:20:38;;;;;;;3.05;2.20;;;;;;;15.23;100.00;99699.20;1748693;80;20955;-61
2023/07/11 04:23:04;;;;;;;5.55;2.42;;;;;;;15.25;100.00;99699.95;1752531;80;21033;-61
2023/07/11 04:25:30;;;;;;;2.92;2.42;;;;;;;15.24;100.00;99690.39;1747897;80;21509;-61
2023/07/11 04:27:57;;;;;;;4.92;2.42;;;;;;;15.30;100.00;99695.23;1754057;80;21023;-62
2023/07/11 04:30:23;;;;;;;3.95;2.33;;;;;;;15.39;100.00;99694.60;1733252;80;21463;-62
2023/07/11 04:32:51;;;;;;;2.62;2.30;;;;;;;15.51;100.00;99689.45;1728717;81;20943;-62
2023/07/11 04:35:18;;;;;;;5.62;2.70;;;;;;;15.64;100.00;99695.57;1735079;81;20998;-61
2023/07/11 04:37:45;;;;;;;3.17;2.58;;;;;;;15.74;100.00;99697.98;1724634;81;21000;-61
2023/07/11 04:40:12;;;;;;;4.15;2.55;;;;;;;15.86;100.00;99693.17;1728117;81;20959;-61
2023/07/11 04:42:38;;;;;;;2.80;2.25;;;;;;;15.96;100.00;99680.67;1724665;81;20987;-62
2023/07/11 04:45:07;;;;;;;2.62;2.40;;;;;;;16.03;100.00;99679.30;1726137;81;20955;-61
2023/07/11 04:47:33;;;;;;;3.67;2.65;;;;;;;16.14;100.00;99675.44;1728325;81;21083;-62
2023/07/11 04:50:00;;;;;;;3.33;2.25;;;;;;;16.25;100.00;99677.31;1721211;81;20979;-63
2023/07/11 04:52:26;;;;;;;3.00;2.75;;;;;;;16.42;100.00;99678.73;1723910;81;20998;-62
2023/07/11 04:54:53;;;;;;;3.60;2.67;;;;;;;16.60;100.00;99672.11;1729778;81;20995;-61
2023/07/11 04:57:22;;;;;;;4.90;2.33;;;;;;;16.77;100.00;99684.08;1724685;80;20967;-62
2023/07/11 04:59:50;;;;;;;2.58;2.37;;;;;;;16.74;100.00;99674.56;1725032;81;20931;-61
2023/07/11 05:02:16;;;;;;;3.80;2.60;;;;;;;16.85;100.00;99679.57;1721391;81;21022;-62
2023/07/11 05:04:42;;;;;;;2.70;1.92;;;;;;;17.01;100.00;99677.48;1731373;81;20963;-61
2023/07/11 05:07:09;;;;;;;3.20;2.55;;;;;;;17.01;100.00;99686.72;1709980;81;21045;-62
2023/07/11 05:09:38;;;;;;;3.22;2.45;;;;;;;16.98;100.00;99697.50;1720465;81;21030;-64
2023/07/11 05:12:05;;;;;;;2.72;2.42;;;;;;;16.89;100.00;99698.19;1725518;81;20946;-61
2023/07/11 05:14:32;;;;;;;;;;;;;;;16.89;100.00;99695.55;1727648;81;20998;-61
2023/07/11 05:17:00;;;;;;;4.87;2.83;;;;;;;16.91;100.00;99700.20;1728266;81;20121;-62
2023/07/11 05:19:26;;;;;;;3.77;2.58;;;;;;;16.97;100.00;99706.34;1728206;80;21006;-64
2023/07/11 05:21:54;;;;;;;2.90;2.70;;;;;;;17.05;100.00;99707.94;1721127;81;20986;-61
2023/07/11 05:24:22;;;;;;;5.83;2.85;;;;;;;17.15;100.00;99707.62;1728507;81;21055;-62
2023/07/11 05:26:48;;;;;;;4.25;2.67;;;;;;;17.26;100.00;99710.78;1724586;80;20978;-62
2023/07/11 05:29:19;;;;;;;3.45;2.65;;;;;;;17.37;100.00;99716.58;1722835;81;21986;-63
2023/07/11 05:31:43;;;;;;;4.33;2.70;;;;;;;17.41;100.00;99719.33;1718008;81;21018;-62
2023/07/11 05:34:11;;;;;;;4.58;3.10;;;;;;;17.48;100.00;99712.64;1726383;81;21608;-62
2023/07/11 05:36:43;;;;;;;3.22;2.67;;;;;;;17.55;100.00;99719.13;1720766;81;20981;-63
2023/07/11 05:39:18;;;;;;;4.17;2.87;;;;;;;17.65;100.00;99716.15;1716378;81;21149;-62
2023/07/11 05:41:49;;;;;;;2.95;2.40;;;;;;;17.76;100.00;99722.42;1720976;81;21018;-61
2023/07/11 05:44:19;;;;;;;3.62;2.80;;;;;;;17.83;100.00;99721.00;1724025;81;21057;-61
2023/07/11 05:46:45;;;;;;;2.87;2.40;;;;;;;17.95;100.00;99720.03;1728568;80;20966;-60
2023/07/11 05:49:12;;;;;;;3.92;2.75;;;;;;;18.08;100.00;99723.41;1728121;81;21068;-61
2023/07/11 05:51:38;;;;;;;6.08;2.52;;;;;;;18.16;100.00;99719.34;1728353;80;20971;-61
2023/07/11 05:54:06;;;;;;;4.95;2.60;;;;;;;18.29;100.00;99727.98;1721247;81;20975;-61
2023/07/11 05:56:33;;;;;;;3.55;3.20;;;;;;;18.41;100.00;99725.67;1725762;81;21057;-61
2023/07/11 05:58:59;;;;;;;3.25;2.95;;;;;;;18.52;100.00;99729.62;1723597;81;20927;-63
2023/07/11 06:01:29;;;;;;;5.37;3.10;;;;;;;18.60;100.00;99730.79;1728545;80;21100;-61
2023/07/11 06:04:07;;;;;;;3.83;3.00;;;;;;;18.55;100.00;99728.05;1723825;81;21029;-61
2023/07/11 06:06:35;;;;;;;3.75;2.62;;;;;;;18.59;100.00;99734.41;1726943;81;21016;-62
2023/07/11 06:09:02;;;;;;;3.50;2.85;;;;;;;18.67;100.00;99731.98;1729173;81;20982;-65
2023/07/11 06:11:30;;;;;;;4.22;3.05;;;;;;;18.83;100.00;99737.75;1728770;81;20923;-61
2023/07/11 06:13:57;;;;;;;3.67;3.37;;;;;;;18.96;100.00;99730.50;1730577;81;21042;-62
2023/07/11 06:16:23;;;;;;;4.45;3.30;;;;;;;19.09;100.00;99726.84;1725278;81;20947;-65
2023/07/11 06:18:52;;;;;;;5.85;3.58;;;;;;;19.12;100.00;99729.23;1733443;81;20979;-61
2023/07/11 06:21:19;;;;;;;5.12;3.47;;;;;;;19.20;100.00;99736.05;1727409;81;20936;-63
2023/07/11 06:23:46;;;;;;;3.70;3.25;;;;;;;19.27;100.00;99734.59;1725040;81;21006;-61
2023/07/11 06:26:15;;;;;;;3.95;3.08;;;;;;;19.27;100.00;99734.59;1722644;80;20982;-61
2023/07/11 06:28:42;;;;;;;5.05;3.85;;;;;;;19.36;100.00;99735.13;1726782;81;21007;-61
2023/07/11 06:31:11;;;;;;;6.08;4.28;;;;;;;19.47;100.00;99737.38;1752819;80;21100;-61
2023/07/11 06:33:38;;;;;;;4.70;3.77;;;;;;;19.54;100.00;99735.88;1746501;80;21021;-61
2023/07/11 06:36:06;;;;;;;4.45;3.45;;;;;;;19.62;100.00;99737.39;1751326;80;21489;-61
2023/07/11 06:38:34;;;;;;;6.85;4.05;;;;;;;19.71;100.00;99726.04;1707298;82;21011;-61
2023/07/11 06:41:08;;;;;;;4.15;3.50;;;;;;;19.82;100.00;99727.28;1746992;80;21064;-61
2023/07/11 06:43:32;;;;;;;4.45;4.05;;;;;;;19.84;100.00;99729.33;1749006;80;20974;-61
2023/07/11 06:46:00;;;;;;;4.22;3.83;;;;;;;19.86;100.00;99730.53;1745696;80;20978;-62
2023/07/11 06:48:31;;;;;;;5.37;3.87;;;;;;;19.83;100.00;99730.31;1752963;80;21481;-61
2023/07/11 06:51:01;;;;;;;4.83;3.70;;;;;;;19.86;100.00;99731.36;1750153;80;20970;-61
2023/07/11 06:53:32;;;;;;;4.97;3.92;;;;;;;19.93;100.00;99729.51;1728868;81;20975;-63
2023/07/11 06:56:02;;;;;;;5.45;3.90;;;;;;;19.96;100.00;99729.23;1756606;80;21010;-62
2023/07/11 06:58:29;;;;;;;6.53;4.00;;;;;;;20.00;100.00;99730.67;1766706;80;20999;-63
2023/07/11 07:01:01;;;;;;;5.47;4.30;;;;;;;20.02;100.00;99731.36;1763173;80;20982;-63
2023/07/11 07:03:28;;;;;;;4.97;3.83;;;;;;;19.95;100.00;99735.52;1755800;80;21127;-63
2023/07/11 07:05:58;;;;;;;4.70;3.75;;;;;;;19.96;100.00;99730.08;1761437;80;20993;-61
2023/07/11 07:08:25;;;;;;;4.62;4.22;;;;;;;19.92;100.00;99735.79;1708936;82;21023;-61
2023/07/11 07:10:52;;;;;;;6.15;4.30;;;;;;;19.86;100.00;99727.39;1758379;80;20942;-61
2023/07/11 07:13:20;;;;;;;7.08;4.50;;;;;;;19.85;100.00;99732.31;1712543;82;21018;-61
2023/07/11 07:32:35;;;;;;;5.08;4.58;;;;;;;19.08;100.00;99731.78;1756646;79;28273;-63
2023/07/11 07:35:02;;;;;;;5.50;4.57;;;;;;;19.08;100.00;99734.43;1730351;81;21099;-64
2023/07/11 07:37:28;;;;;;;6.10;4.85;;;;;;;19.10;100.00;99737.77;1731176;81;21033;-65
2023/07/11 07:39:54;;;;;;;4.60;4.00;;;;;;;19.12;100.00;99739.81;1723649;81;22516;-64
2023/07/11 07:42:21;;;;;;;5.03;4.50;;;;;;;19.06;100.00;99735.03;1728802;81;22595;-64
2023/07/11 07:44:48;;;;;;;6.87;4.92;;;;;;;19.05;100.00;99726.75;1732360;81;21478;-62
2023/07/11 07:47:18;;;;;;;4.85;4.30;;;;;;;18.77;100.00;99736.94;1732918;81;21584;-61
2023/07/11 07:49:49;;;;;;;7.47;4.78;;;;;;;18.65;100.00;99733.91;1735400;81;21093;-64
2023/07/11 07:52:13;;;;;;;6.37;4.95;;;;;;;18.61;100.00;99737.78;1742698;81;21555;-62
2023/07/11 07:54:39;;;;;;;5.42;4.62;;;;;;;18.58;100.00;99735.38;1739034;81;21129;-61
2023/07/11 07:57:06;;;;;;;4.95;4.00;;;;;;;18.60;100.00;99733.44;1736225;81;21081;-62
2023/07/11 07:59:32;;;;;;;5.60;4.55;;;;;;;18.64;100.00;99734.88;1738065;80;21046;-61
2023/07/11 08:01:59;;;;;;;5.17;4.67;;;;;;;18.70;100.00;99733.06;1748490;81;21410;-61
2023/07/11 08:04:25;;;;;;;6.22;5.12;;;;;;;18.89;100.00;99731.95;1752935;81;20974;-62
2023/07/11 08:06:51;;;;;;;5.53;5.00;;;;;;;19.15;100.00;99742.20;1749245;81;21145;-61
2023/07/11 08:09:27;;;;;;;6.03;5.30;;;;;;;19.31;100.00;99738.64;1742738;81;21080;-62
2023/07/11 08:11:57;;;;;;;6.12;4.60;;;;;;;19.33;100.00;99719.51;1739730;81;21064;-62
2023/07/11 08:14:23;;;;;;;5.87;4.20;;;;;;;19.51;100.00;99735.64;1744036;81;21140;-62
2023/07/11 08:16:50;;;;;;;7.47;4.60;;;;;;;19.48;100.00;99729.78;1738834;81;21531;-63
2023/07/11 08:19:16;;;;;;;5.08;4.33;;;;;;;19.47;100.00;99737.38;1744772;81;21109;-62
2023/07/11 08:21:45;;;;;;;4.83;4.33;;;;;;;19.45;100.00;99730.88;1740171;81;21030;-63
2023/07/11 08:24:12;;;;;;;5.33;4.00;;;;;;;19.50;100.00;99738.44;1716091;81;21038;-61
2023/07/11 08:26:39;;;;;;;6.60;4.05;;;;;;;19.61;100.00;99747.64;1739029;81;21625;-62
2023/07/11 08:29:05;;;;;;;4.95;4.17;;;;;;;19.75;100.00;99740.72;1746168;81;21022;-62
2023/07/11 08:31:32;;;;;;;5.20;4.47;;;;;;;19.87;100.00;99738.33;1743145;81;21136;-61
2023/07/11 08:33:59;;;;;;;5.80;4.40;;;;;;;19.86;100.00;99736.66;1737137;81;21059;-63
2023/07/11 08:36:25;;;;;;;5.42;4.85;;;;;;;19.80;100.00;99739.84;1735850;81;22236;-61
2023/07/11 08:38:52;;;;;;;9.35;5.50;;;;;;;19.79;100.00;99742.13;1736555;81;21130;-61
2023/07/11 08:41:28;;;;;;;4.97;4.58;;;;;;;19.78;100.00;99737.80;1747180;81;21070;-62
2023/07/11 08:43:58;;;;;;;5.97;4.70;;;;;;;19.78;100.00;99743.10;1738789;81;21170;-63
2023/07/11 08:46:27;;;;;;;7.47;4.83;;;;;;;19.89;100.00;99736.40;1737192;81;21102;-62
2023/07/11 08:49:00;;;;;;;9.05;5.00;;;;;;;20.02;100.00;99739.30;1738543;81;21084;-61
2023/07/11 08:51:37;;;;;;;4.87;4.35;;;;;;;20.14;100.00;99732.96;1742611;81;21611;-64
2023/07/11 08:54:08;;;;;;;5.08;4.65;;;;;;;20.23;100.00;99734.80;1728567;81;21076;-66
2023/07/11 08:56:42;;;;;;;5.47;4.70;;;;;;;20.29;100.00;99728.95;1737140;81;21564;-62
2023/07/11 08:59:35;;;;;;;6.47;4.78;;;;;;;20.45;100.00;99735.58;1739732;81;21545;-62
2023/07/11 09:02:20;;;;;;;5.22;4.70;;;;;;;20.61;100.00;99738.55;1741862;81;21116;-62
2023/07/11 09:04:50;;;;;;;8.63;5.17;;;;;;;20.85;100.00;99734.70;1687702;83;20972;-65
2023/07/11 09:07:45;;;;;;;5.35;4.53;;;;;;;21.05;100.00;99740.37;1686506;84;21087;-62
2023/07/11 09:10:23;;;;;;;7.92;4.58;;;;;;;21.17;100.00;99740.59;1674133;84;21123;-61
2023/07/11 09:13:17;;;;;;;6.60;4.35;;;;;;;21.15;100.00;99738.56;1686125;84;21025;-63
2023/07/11 09:15:50;;;;;;;6.05;4.45;;;;;;;21.21;100.00;99739.82;1637666;86;21137;-62
2023/07/11 09:18:22;;;;;;;7.00;5.40;;;;;;;21.28;100.00;99741.41;1630334;86;21075;-64
2023/07/11 09:20:52;;;;;;;5.85;5.10;;;;;;;21.41;100.00;99740.67;1634997;86;21121;-63
2023/07/11 09:23:40;;;;;;;6.55;4.37;;;;;;;21.46;100.00;99745.08;1636200;86;21103;-63
2023/07/11 09:26:12;;;;;;;4.95;4.15;;;;;;;21.47;100.00;99735.28;1632187;86;21154;-65
2023/07/11 09:28:41;;;;;;;4.80;4.33;;;;;;;21.56;100.00;99732.59;1620378;86;21094;-63
2023/07/11 09:31:12;;;;;;;5.95;4.75;;;;;;;21.75;100.00;99730.89;1641832;85;21094;-63
2023/07/11 09:33:43;;;;;;;6.30;4.70;;;;;;;21.84;99.96;99728.19;1629102;86;21046;-63
2023/07/11 09:36:22;;;;;;;5.95;4.62;;;;;;;21.89;100.00;99727.77;1631565;87;21230;-63
2023/07/11 09:38:58;;;;;;;5.47;4.37;;;;;;;21.96;99.78;99724.89;1631381;87;21007;-66
2023/07/11 09:41:50;;;;;;;9.58;4.42;;;;;;;22.03;100.00;99726.46;1613385;87;21101;-65
2023/07/11 09:44:17;;;;;;;5.60;4.33;;;;;;;22.15;99.81;99725.28;1645138;86;21049;-67
2023/07/11 09:46:44;;;;;;;6.30;4.72;;;;;;;22.21;99.86;99729.20;1677621;85;21698;-65
2023/07/11 09:49:16;;;;;;;6.72;4.30;;;;;;;22.26;99.43;99729.61;1673056;85;21073;-65
2023/07/11 09:51:53;;;;;;;5.80;4.90;;;;;;;22.25;98.90;99727.95;1705488;83;20990;-62
2023/07/11 09:54:26;;;;;;;7.67;4.33;;;;;;;22.22;98.50;99729.08;1711382;82;22502;-62
2023/07/11 09:56:52;;;;;;;6.70;4.22;;;;;;;22.24;98.21;99727.61;1707902;83;21485;-64
2023/07/11 09:59:23;;;;;;;6.37;4.12;;;;;;;22.20;98.38;99735.52;1712897;83;21576;-64
2023/07/11 10:01:56;;;;;;;5.70;4.35;;;;;;;22.01;97.74;99739.89;1717473;82;21045;-62
2023/07/11 10:04:29;;;;;;;5.92;4.22;;;;;;;21.86;97.41;99740.02;1707550;82;21522;-62
2023/07/11 10:07:03;;;;;;;6.95;3.87;;;;;;;21.81;98.22;99738.28;1675107;84;21715;-62
2023/07/11 10:09:32;;;;;;;5.67;4.15;;;;;;;21.71;97.79;99735.66;1674553;84;21500;-63
2023/07/11 10:12:17;;;;;;;5.12;4.12;;;;;;;21.66;97.55;99733.42;1673781;85;21069;-63
2023/07/11 10:14:47;;;;;;;4.95;3.80;;;;;;;21.71;98.03;99733.50;1541750;91;21116;-63
2023/07/11 10:17:35;;;;;;;4.30;3.65;;;;;;;21.78;98.24;99739.91;1538703;92;21246;-62
2023/07/11 10:20:06;;;;;;;5.10;3.70;;;;;;;21.79;97.46;99737.11;1535982;91;21954;-62
2023/07/11 10:22:34;;;;;;;5.12;3.90;;;;;;;22.05;99.05;99733.31;1536298;91;21107;-63
2023/07/11 10:25:22;;;;;;;8.05;4.15;;;;;;;22.44;97.58;99730.51;1539601;92;21158;-63
2023/07/11 10:28:13;;;;;;;5.42;3.70;;;;;;;22.66;97.25;99741.70;1536997;92;21204;-63
2023/07/11 10:30:38;;;;;;;5.08;3.20;;;;;;;23.01;98.29;99725.80;1549326;91;21121;-70
2023/07/11 10:33:12;;;;;;;5.28;3.35;;;;;;;23.34;97.62;99723.42;1568627;90;21065;-66
2023/07/11 10:35:39;;;;;;;5.35;3.42;;;;;;;23.74;96.92;99722.06;1568774;90;21043;-65
2023/07/11 10:38:11;;;;;;;4.72;3.37;;;;;;;24.13;97.44;99713.61;1569205;90;21906;-69
2023/07/11 10:40:41;;;;;;;4.50;3.40;;;;;;;24.49;96.09;99713.45;1563121;89;21078;-64
2023/07/11 10:43:31;;;;;;;3.85;2.92;;;;;;;25.70;99.90;99710.19;1598029;88;21097;-66
2023/07/11 10:46:04;;;;;;;5.33;2.85;;;;;;;27.21;100.00;99702.79;1574871;89;21138;-62
2023/07/11 10:48:34;;;;;;;2.77;2.50;;;;;;;29.97;100.00;99698.31;1619802;83;21091;-62
2023/07/11 10:51:10;;;;;;;101.25;14.65;;;;;;;31.60;99.64;99696.42;1691328;83;21186;-63
2023/07/11 10:53:40;;;;;;;27.73;4.72;;;;;;;33.76;100.00;99691.28;1692583;83;21040;-63
2023/07/11 10:56:10;;;;;;;42.00;4.35;;;;;;;36.36;98.86;99693.51;1695600;82;21141;-64
2023/07/11 10:58:36;;;;;;;4.10;2.20;;;;;;;38.37;92.61;99689.00;1689669;82;21105;-63
2023/07/11 11:01:24;;;;;;;5.37;2.00;;;;;;;39.51;92.80;99690.34;1695164;83;21041;-63
2023/07/11 11:03:57;;;;;;;3.27;2.47;;;;;;;39.82;86.22;99686.70;1696720;83;21006;-64
2023/07/11 11:06:30;;;;;;;4.83;2.25;;;;;;;40.23;86.59;99680.06;1698445;82;21166;-66
2023/07/11 11:09:07;;;;;;;3.27;1.85;;;;;;;41.08;86.48;99679.66;1697399;82;20997;-64
2023/07/11 11:11:50;;;;;;;7.70;2.10;;;;;;;41.35;82.48;99674.42;1695697;83;21522;-66
2023/07/11 11:14:29;;;;;;;2.80;1.92;;;;;;;41.59;82.66;99678.24;1691204;82;21034;-64
2023/07/11 11:17:11;;;;;;;3.12;1.85;;;;;;;41.51;79.07;99680.18;1696081;82;21084;-63
2023/07/11 11:20:07;;;;;;;1.77;1.55;;;;;;;40.85;78.80;99677.45;1693931;82;21071;-66
2023/07/11 11:22:49;;;;;;;3.80;1.80;;;;;;;41.07;78.34;99680.77;1693983;82;21101;-63
2023/07/11 11:25:19;;;;;;;4.12;1.80;;;;;;;39.69;67.58;99670.78;1694606;82;21178;-63
2023/07/11 11:27:53;;;;;;;2.92;2.00;;;;;;;37.58;70.65;99671.11;1693538;82;21025;-62
2023/07/11 11:30:30;;;;;;;2.40;1.75;;;;;;;37.58;70.65;99671.11;1693021;83;21080;-63
2023/07/11 11:33:28;;;;;;;2.42;1.60;;;;;;;37.37;69.90;99672.70;1680761;84;21614;-65
2023/07/11 11:36:10;;;;;;;2.50;1.90;;;;;;;38.03;70.24;99670.09;1671126;85;21665;-65
2023/07/11 11:39:03;;;;;;;2.45;1.67;;;;;;;37.34;64.32;99667.77;1667491;83;21544;-62
2023/07/11 11:41:36;;;;;;;3.33;2.00;;;;;;;36.72;65.93;99678.70;1673664;85;21537;-66
2023/07/11 11:44:06;;;;;;;3.30;1.72;;;;;;;37.27;62.62;99669.00;1683072;84;21517;-65
2023/07/11 11:46:33;;;;;;;2.22;1.80;;;;;;;36.33;62.57;99671.70;1661551;84;21141;-64
2023/07/11 11:49:00;;;;;;;3.77;1.47;;;;;;;36.56;64.22;99674.88;1682178;84;21040;-63
2023/07/11 11:51:28;;;;;;;2.90;1.50;;;;;;;37.32;62.04;99666.36;1680217;84;21122;-64
2023/07/11 11:54:13;;;;;;;3.87;1.80;;;;;;;37.24;61.37;99665.42;1698388;83;21074;-65